sensor_id;sensor_type;location;lat;lon;timestamp;pressure;altitude;pressure_sealevel;temperature;humidity
61109;BME280;46995;55.740;37.402;2022-12-20T00:00:13;100653.06;;;-2.80;91.47
61109;BME280;46995;55.740;37.402;2022-12-20T00:02:38;100659.09;;;-2.78;91.25
61109;BME280;46995;55.740;37.402;2022-12-20T00:05:04;100660.84;;;-2.81;91.05
61109;BME280;46995;55.740;37.402;2022-12-20T00:07:31;100648.03;;;-2.89;90.95
61109;BME280;46995;55.740;37.402;2022-12-20T00:09:57;100622.28;;;-2.96;91.36
61109;BME280;46995;55.740;37.402;2022-12-20T00:12:23;100640.28;;;-2.89;91.54
61109;BME280;46995;55.740;37.402;2022-12-20T00:14:48;100655.72;;;-2.86;91.29
61109;BME280;46995;55.740;37.402;2022-12-20T00:17:14;100625.72;;;-2.96;90.99
61109;BME280;46995;55.740;37.402;2022-12-20T00:19:42;100637.72;;;-2.92;91.19
61109;BME280;46995;55.740;37.402;2022-12-20T00:22:08;100633.41;;;-2.90;91.17
61109;BME280;46995;55.740;37.402;2022-12-20T00:24:34;100629.97;;;-2.92;91.03
61109;BME280;46995;55.740;37.402;2022-12-20T00:27:00;100618.78;;;-2.92;91.22
61109;BME280;46995;55.740;37.402;2022-12-20T00:29:25;100659.13;;;-2.82;91.40
61109;BME280;46995;55.740;37.402;2022-12-20T00:31:53;100659.97;;;-2.82;91.12
61109;BME280;46995;55.740;37.402;2022-12-20T00:34:18;100638.44;;;-2.82;91.09
61109;BME280;46995;55.740;37.402;2022-12-20T00:36:45;100628.22;;;-2.88;91.10
61109;BME280;46995;55.740;37.402;2022-12-20T00:39:11;100605.13;;;-3.02;90.90
61109;BME280;46995;55.740;37.402;2022-12-20T00:41:37;100629.03;;;-2.85;90.62
61109;BME280;46995;55.740;37.402;2022-12-20T00:44:03;100623.06;;;-2.90;91.00
61109;BME280;46995;55.740;37.402;2022-12-20T00:46:30;100631.66;;;-2.89;90.61
61109;BME280;46995;55.740;37.402;2022-12-20T00:48:57;100611.94;;;-2.93;90.72
61109;BME280;46995;55.740;37.402;2022-12-20T00:51:26;100622.19;;;-2.89;91.17
61109;BME280;46995;55.740;37.402;2022-12-20T00:53:53;100611.84;;;-2.89;90.90
61109;BME280;46995;55.740;37.402;2022-12-20T00:56:19;100588.75;;;-3.01;90.71
61109;BME280;46995;55.740;37.402;2022-12-20T00:58:45;100596.38;;;-2.92;90.89
61109;BME280;46995;55.740;37.402;2022-12-20T01:01:21;100605.84;;;-2.89;90.82
61109;BME280;46995;55.740;37.402;2022-12-20T01:03:48;100613.56;;;-2.88;90.99
61109;BME280;46995;55.740;37.402;2022-12-20T01:06:15;100580.13;;;-2.98;91.09
61109;BME280;46995;55.740;37.402;2022-12-20T01:08:41;100592.91;;;-2.91;90.79
61109;BME280;46995;55.740;37.402;2022-12-20T01:11:11;100606.72;;;-2.92;90.82
61109;BME280;46995;55.740;37.402;2022-12-20T01:13:39;100594.72;;;-2.96;90.86
61109;BME280;46995;55.740;37.402;2022-12-20T01:16:07;100556.91;;;-3.03;90.94
61109;BME280;46995;55.740;37.402;2022-12-20T01:18:35;100579.34;;;-3.05;90.69
61109;BME280;46995;55.740;37.402;2022-12-20T01:21:06;100569.75;;;-2.97;90.90
61109;BME280;46995;55.740;37.402;2022-12-20T01:23:32;100548.44;;;-3.11;91.05
61109;BME280;46995;55.740;37.402;2022-12-20T01:26:02;100568.94;;;-2.99;90.39
61109;BME280;46995;55.740;37.402;2022-12-20T01:28:29;100556.97;;;-3.06;91.12
61109;BME280;46995;55.740;37.402;2022-12-20T01:30:55;100564.63;;;-3.00;90.38
61109;BME280;46995;55.740;37.402;2022-12-20T01:33:22;100555.22;;;-3.04;90.78
61109;BME280;46995;55.740;37.402;2022-12-20T01:38:21;100563.94;;;-3.11;90.13
61109;BME280;46995;55.740;37.402;2022-12-20T01:40:47;100572.56;;;-3.12;90.35
61109;BME280;46995;55.740;37.402;2022-12-20T01:43:14;100566.53;;;-3.13;90.26
61109;BME280;46995;55.740;37.402;2022-12-20T01:45:42;100534.97;;;-3.34;90.62
61109;BME280;46995;55.740;37.402;2022-12-20T01:48:08;100555.56;;;-3.28;90.57
61109;BME280;46995;55.740;37.402;2022-12-20T01:50:34;100540.31;;;-3.47;90.23
61109;BME280;46995;55.740;37.402;2022-12-20T01:53:01;100565.16;;;-3.39;90.36
61109;BME280;46995;55.740;37.402;2022-12-20T01:55:29;100551.53;;;-3.49;90.03
61109;BME280;46995;55.740;37.402;2022-12-20T01:58:01;100557.47;;;-3.43;89.86
61109;BME280;46995;55.740;37.402;2022-12-20T02:00:27;100563.44;;;-3.39;90.61
61109;BME280;46995;55.740;37.402;2022-12-20T02:02:54;100530.94;;;-3.54;90.33
61109;BME280;46995;55.740;37.402;2022-12-20T02:05:23;100551.53;;;-3.48;90.50
61109;BME280;46995;55.740;37.402;2022-12-20T02:07:52;100553.16;;;-3.42;89.79
61109;BME280;46995;55.740;37.402;2022-12-20T02:10:21;100544.69;;;-3.52;90.09
61109;BME280;46995;55.740;37.402;2022-12-20T02:12:49;100539.59;;;-3.56;89.92
61109;BME280;46995;55.740;37.402;2022-12-20T02:23:31;100533.72;;;-3.69;89.29
61109;BME280;46995;55.740;37.402;2022-12-20T02:31:43;100533.97;;;-3.90;88.83
61109;BME280;46995;55.740;37.402;2022-12-20T02:34:12;100510.94;;;-4.04;89.09
61109;BME280;46995;55.740;37.402;2022-12-20T02:36:39;100535.81;;;-4.00;89.18
61109;BME280;46995;55.740;37.402;2022-12-20T02:39:05;100529.84;;;-4.03;89.26
61109;BME280;46995;55.740;37.402;2022-12-20T02:41:35;100516.16;;;-4.11;89.12
61109;BME280;46995;55.740;37.402;2022-12-20T02:44:07;100505.97;;;-4.22;89.14
61109;BME280;46995;55.740;37.402;2022-12-20T02:46:55;100498.31;;;-4.31;88.74
61109;BME280;46995;55.740;37.402;2022-12-20T02:49:29;100498.34;;;-4.33;88.73
61109;BME280;46995;55.740;37.402;2022-12-20T02:51:58;100472.75;;;-4.51;88.30
61109;BME280;46995;55.740;37.402;2022-12-20T02:54:26;100484.84;;;-4.56;88.81
61109;BME280;46995;55.740;37.402;2022-12-20T02:56:58;100501.97;;;-4.52;88.67
61109;BME280;46995;55.740;37.402;2022-12-20T02:59:36;100485.75;;;-4.63;88.22
61109;BME280;46995;55.740;37.402;2022-12-20T03:02:04;100483.28;;;-4.72;88.38
61109;BME280;46995;55.740;37.402;2022-12-20T03:04:34;100489.19;;;-4.64;88.61
61109;BME280;46995;55.740;37.402;2022-12-20T03:07:09;100479.84;;;-4.74;88.83
61109;BME280;46995;55.740;37.402;2022-12-20T03:09:38;100480.69;;;-4.74;88.22
61109;BME280;46995;55.740;37.402;2022-12-20T03:12:05;100489.25;;;-4.68;88.73
61109;BME280;46995;55.740;37.402;2022-12-20T03:14:34;100466.16;;;-4.79;88.55
61109;BME280;46995;55.740;37.402;2022-12-20T03:17:03;100469.56;;;-4.77;88.91
61109;BME280;46995;55.740;37.402;2022-12-20T03:19:29;100463.53;;;-4.76;88.68
61109;BME280;46995;55.740;37.402;2022-12-20T03:21:57;100462.66;;;-4.72;88.88
61109;BME280;46995;55.740;37.402;2022-12-20T03:24:23;100454.13;;;-4.79;88.15
61109;BME280;46995;55.740;37.402;2022-12-20T03:26:49;100459.22;;;-4.71;88.47
61109;BME280;46995;55.740;37.402;2022-12-20T03:29:17;100447.22;;;-4.75;88.67
61109;BME280;46995;55.740;37.402;2022-12-20T03:31:43;100442.09;;;-4.78;88.34
61109;BME280;46995;55.740;37.402;2022-12-20T03:34:09;100453.22;;;-4.72;89.07
61109;BME280;46995;55.740;37.402;2022-12-20T03:36:35;100443.78;;;-4.74;88.17
61109;BME280;46995;55.740;37.402;2022-12-20T03:39:04;100421.59;;;-4.90;88.08
61109;BME280;46995;55.740;37.402;2022-12-20T03:41:34;100440.44;;;-4.85;88.29
61109;BME280;46995;55.740;37.402;2022-12-20T03:44:00;100433.66;;;-4.92;88.06
61109;BME280;46995;55.740;37.402;2022-12-20T03:46:26;100436.25;;;-4.95;88.05
61109;BME280;46995;55.740;37.402;2022-12-20T03:48:53;100411.50;;;-5.12;87.42
61109;BME280;46995;55.740;37.402;2022-12-20T03:51:19;100433.75;;;-5.04;87.85
61109;BME280;46995;55.740;37.402;2022-12-20T03:53:46;100408.09;;;-5.17;87.72
61109;BME280;46995;55.740;37.402;2022-12-20T03:56:13;100392.78;;;-5.32;87.59
61109;BME280;46995;55.740;37.402;2022-12-20T03:58:40;100400.47;;;-5.27;87.38
61109;BME280;46995;55.740;37.402;2022-12-20T04:01:20;100408.16;;;-5.20;87.46
61109;BME280;46995;55.740;37.402;2022-12-20T04:03:49;100415.00;;;-5.19;87.68
61109;BME280;46995;55.740;37.402;2022-12-20T04:06:16;100385.94;;;-5.33;87.60
61109;BME280;46995;55.740;37.402;2022-12-20T04:08:42;100388.44;;;-5.24;87.77
61109;BME280;46995;55.740;37.402;2022-12-20T04:11:10;100389.28;;;-5.22;87.80
61109;BME280;46995;55.740;37.402;2022-12-20T04:13:52;100314.94;;;-5.58;87.45
61109;BME280;46995;55.740;37.402;2022-12-20T04:16:21;100370.44;;;-5.25;87.71
61109;BME280;46995;55.740;37.402;2022-12-20T04:18:47;100360.22;;;-5.36;87.17
61109;BME280;46995;55.740;37.402;2022-12-20T04:21:14;100363.56;;;-5.28;87.84
61109;BME280;46995;55.740;37.402;2022-12-20T04:23:45;100372.19;;;-5.32;87.36
61109;BME280;46995;55.740;37.402;2022-12-20T04:26:11;100348.28;;;-5.43;87.73
61109;BME280;46995;55.740;37.402;2022-12-20T04:28:37;100358.56;;;-5.43;87.47
61109;BME280;46995;55.740;37.402;2022-12-20T04:31:08;100357.72;;;-5.43;87.23
61109;BME280;46995;55.740;37.402;2022-12-20T04:33:39;100363.72;;;-5.40;87.45
61109;BME280;46995;55.740;37.402;2022-12-20T04:36:07;100348.31;;;-5.49;87.40
61109;BME280;46995;55.740;37.402;2022-12-20T04:38:34;100368.78;;;-5.34;87.72
61109;BME280;46995;55.740;37.402;2022-12-20T04:41:00;100374.00;;;-5.40;87.23
61109;BME280;46995;55.740;37.402;2022-12-20T04:43:33;100356.97;;;-5.56;86.50
61109;BME280;46995;55.740;37.402;2022-12-20T04:45:59;100357.84;;;-5.59;86.32
61109;BME280;46995;55.740;37.402;2022-12-20T04:48:26;100362.16;;;-5.64;87.27
61109;BME280;46995;55.740;37.402;2022-12-20T04:50:54;100369.03;;;-5.64;86.82
61109;BME280;46995;55.740;37.402;2022-12-20T04:53:21;100334.88;;;-5.83;86.60
61109;BME280;46995;55.740;37.402;2022-12-20T04:56:06;100364.78;;;-5.70;86.74
61109;BME280;46995;55.740;37.402;2022-12-20T04:58:32;100363.09;;;-5.71;86.76
61109;BME280;46995;55.740;37.402;2022-12-20T05:00:58;100365.66;;;-5.72;86.80
61109;BME280;46995;55.740;37.402;2022-12-20T05:03:30;100344.25;;;-5.76;87.03
61109;BME280;46995;55.740;37.402;2022-12-20T05:05:56;100357.09;;;-5.71;86.40
61109;BME280;46995;55.740;37.402;2022-12-20T05:08:23;100334.88;;;-5.83;86.73
61109;BME280;46995;55.740;37.402;2022-12-20T05:10:51;100334.84;;;-5.78;86.83
61109;BME280;46995;55.740;37.402;2022-12-20T05:13:16;100329.72;;;-5.81;87.21
61109;BME280;46995;55.740;37.402;2022-12-20T05:15:44;100335.66;;;-5.73;87.30
61109;BME280;46995;55.740;37.402;2022-12-20T05:18:10;100330.50;;;-5.75;86.90
61109;BME280;46995;55.740;37.402;2022-12-20T05:20:47;100334.75;;;-5.66;86.82
61109;BME280;46995;55.740;37.402;2022-12-20T05:23:13;100326.13;;;-5.61;87.11
61109;BME280;46995;55.740;37.402;2022-12-20T05:26:07;100326.97;;;-5.57;86.69
61109;BME280;46995;55.740;37.402;2022-12-20T05:28:42;100324.34;;;-5.54;87.13
61109;BME280;46995;55.740;37.402;2022-12-20T05:31:09;100320.91;;;-5.51;86.89
61109;BME280;46995;55.740;37.402;2022-12-20T05:33:35;100315.75;;;-5.50;87.29
61109;BME280;46995;55.740;37.402;2022-12-20T05:36:02;100292.69;;;-5.64;86.71
61109;BME280;46995;55.740;37.402;2022-12-20T05:38:28;100301.22;;;-5.59;86.70
61109;BME280;46995;55.740;37.402;2022-12-20T05:40:55;100298.66;;;-5.59;86.75
61109;BME280;46995;55.740;37.402;2022-12-20T05:43:20;100292.69;;;-5.62;86.14
61109;BME280;46995;55.740;37.402;2022-12-20T05:45:48;100296.97;;;-5.61;86.78
61109;BME280;46995;55.740;37.402;2022-12-20T05:48:19;100285.03;;;-5.68;86.20
61109;BME280;46995;55.740;37.402;2022-12-20T05:50:45;100275.66;;;-5.74;86.24
61109;BME280;46995;55.740;37.402;2022-12-20T05:53:29;100289.31;;;-5.69;86.44
61109;BME280;46995;55.740;37.402;2022-12-20T05:55:58;100276.53;;;-5.79;86.00
61109;BME280;46995;55.740;37.402;2022-12-20T05:58:30;100267.25;;;-5.91;86.06
61109;BME280;46995;55.740;37.402;2022-12-20T06:01:00;100262.13;;;-5.92;85.97
61109;BME280;46995;55.740;37.402;2022-12-20T06:03:28;100269.00;;;-5.94;86.13
61109;BME280;46995;55.740;37.402;2022-12-20T06:05:54;100285.22;;;-5.89;86.46
61109;BME280;46995;55.740;37.402;2022-12-20T06:08:25;100279.22;;;-5.90;86.62
61109;BME280;46995;55.740;37.402;2022-12-20T06:10:53;100293.72;;;-5.81;86.19
61109;BME280;46995;55.740;37.402;2022-12-20T06:13:21;100280.00;;;-5.83;86.22
61109;BME280;46995;55.740;37.402;2022-12-20T06:15:49;100278.38;;;-5.90;86.45
61109;BME280;46995;55.740;37.402;2022-12-20T06:18:17;100271.56;;;-5.91;86.40
61109;BME280;46995;55.740;37.402;2022-12-20T06:20:51;100262.16;;;-5.97;85.84
61109;BME280;46995;55.740;37.402;2022-12-20T06:23:21;100271.56;;;-5.94;86.57
61109;BME280;46995;55.740;37.402;2022-12-20T06:25:57;100278.41;;;-5.96;85.70
61109;BME280;46995;55.740;37.402;2022-12-20T06:28:25;100261.34;;;-6.04;86.08
61109;BME280;46995;55.740;37.402;2022-12-20T06:30:54;100269.88;;;-5.97;86.21
61109;BME280;46995;55.740;37.402;2022-12-20T06:33:35;100266.50;;;-6.04;86.03
61109;BME280;46995;55.740;37.402;2022-12-20T06:36:02;100264.75;;;-6.02;86.29
61109;BME280;46995;55.740;37.402;2022-12-20T06:38:28;100266.50;;;-6.04;86.01
61109;BME280;46995;55.740;37.402;2022-12-20T06:40:54;100242.63;;;-6.21;86.23
61109;BME280;46995;55.740;37.402;2022-12-20T06:43:20;100240.91;;;-6.20;86.04
61109;BME280;46995;55.740;37.402;2022-12-20T06:45:47;100250.34;;;-6.18;85.94
61109;BME280;46995;55.740;37.402;2022-12-20T06:48:13;100237.47;;;-6.18;86.03
61109;BME280;46995;55.740;37.402;2022-12-20T06:50:41;100231.50;;;-6.21;85.51
61109;BME280;46995;55.740;37.402;2022-12-20T06:53:07;100236.63;;;-6.21;85.48
61109;BME280;46995;55.740;37.402;2022-12-20T06:55:33;100217.00;;;-6.30;86.30
61109;BME280;46995;55.740;37.402;2022-12-20T06:57:59;100211.00;;;-6.32;85.97
61109;BME280;46995;55.740;37.402;2022-12-20T07:00:25;100215.25;;;-6.28;85.82
61109;BME280;46995;55.740;37.402;2022-12-20T07:02:51;100200.75;;;-6.38;85.86
61109;BME280;46995;55.740;37.402;2022-12-20T07:05:17;100211.84;;;-6.28;85.98
61109;BME280;46995;55.740;37.402;2022-12-20T07:07:43;100204.97;;;-6.28;85.60
61109;BME280;46995;55.740;37.402;2022-12-20T07:10:09;100179.41;;;-6.43;85.89
61109;BME280;46995;55.740;37.402;2022-12-20T07:12:34;100168.25;;;-6.42;85.95
61109;BME280;46995;55.740;37.402;2022-12-20T07:15:00;100167.41;;;-6.41;85.64
61109;BME280;46995;55.740;37.402;2022-12-20T07:17:26;100176.72;;;-6.28;85.64
61109;BME280;46995;55.740;37.402;2022-12-20T07:19:52;100162.19;;;-6.32;85.88
61109;BME280;46995;55.740;37.402;2022-12-20T07:22:17;100151.13;;;-6.40;85.96
61109;BME280;46995;55.740;37.402;2022-12-20T07:24:44;100135.72;;;-6.43;85.57
61109;BME280;46995;55.740;37.402;2022-12-20T07:27:10;100162.09;;;-6.20;85.84
61109;BME280;46995;55.740;37.402;2022-12-20T07:29:36;100145.00;;;-6.27;85.82
61109;BME280;46995;55.740;37.402;2022-12-20T07:32:05;100145.81;;;-6.19;85.83
61109;BME280;46995;55.740;37.402;2022-12-20T07:34:31;100133.06;;;-6.31;85.54
61109;BME280;46995;55.740;37.402;2022-12-20T07:36:56;100139.00;;;-6.24;85.78
61109;BME280;46995;55.740;37.402;2022-12-20T07:39:23;100122.72;;;-6.25;85.80
61109;BME280;46995;55.740;37.402;2022-12-20T07:41:53;100123.50;;;-6.14;85.45
61109;BME280;46995;55.740;37.402;2022-12-20T07:44:21;100090.28;;;-6.36;85.78
61109;BME280;46995;55.740;37.402;2022-12-20T07:46:47;100122.53;;;-6.04;86.15
61109;BME280;46995;55.740;37.402;2022-12-20T07:49:13;100119.06;;;-5.98;85.84
61109;BME280;46995;55.740;37.402;2022-12-20T07:51:51;100095.22;;;-6.14;85.04
61109;BME280;46995;55.740;37.402;2022-12-20T07:54:21;100087.41;;;-6.03;85.47
61109;BME280;46995;55.740;37.402;2022-12-20T07:56:53;100080.56;;;-6.04;85.48
61109;BME280;46995;55.740;37.402;2022-12-20T07:59:45;100066.88;;;-6.08;85.59
61109;BME280;46995;55.740;37.402;2022-12-20T08:02:14;100076.22;;;-5.99;85.57
61109;BME280;46995;55.740;37.402;2022-12-20T08:04:43;100064.22;;;-6.02;85.26
61109;BME280;46995;55.740;37.402;2022-12-20T08:07:09;100063.41;;;-6.02;84.96
61109;BME280;46995;55.740;37.402;2022-12-20T08:09:37;100071.03;;;-5.94;85.20
61109;BME280;46995;55.740;37.402;2022-12-20T08:12:06;100049.72;;;-6.06;85.33
61109;BME280;46995;55.740;37.402;2022-12-20T08:14:33;100020.78;;;-6.23;84.92
61109;BME280;46995;55.740;37.402;2022-12-20T08:16:58;100042.06;;;-6.10;85.41
61109;BME280;46995;55.740;37.402;2022-12-20T08:19:25;100025.88;;;-6.18;85.24
61109;BME280;46995;55.740;37.402;2022-12-20T08:21:50;100041.13;;;-6.05;85.77
61109;BME280;46995;55.740;37.402;2022-12-20T08:24:16;100047.09;;;-6.01;85.46
61109;BME280;46995;55.740;37.402;2022-12-20T08:26:42;100036.81;;;-6.00;84.95
61109;BME280;46995;55.740;37.402;2022-12-20T08:29:08;100057.41;;;-6.03;85.46
61109;BME280;46995;55.740;37.402;2022-12-20T08:31:40;100045.44;;;-6.07;84.99
61109;BME280;46995;55.740;37.402;2022-12-20T08:34:09;100048.03;;;-6.08;85.39
61109;BME280;46995;55.740;37.402;2022-12-20T08:36:36;100032.69;;;-6.14;84.90
61109;BME280;46995;55.740;37.402;2022-12-20T08:39:04;100031.78;;;-6.12;84.75
61109;BME280;46995;55.740;37.402;2022-12-20T08:41:30;100031.78;;;-6.12;85.44
61109;BME280;46995;55.740;37.402;2022-12-20T08:43:58;100008.84;;;-6.28;85.04
61109;BME280;46995;55.740;37.402;2022-12-20T08:46:24;100003.59;;;-6.18;85.59
61109;BME280;46995;55.740;37.402;2022-12-20T08:48:51;99995.91;;;-6.18;85.56
61109;BME280;46995;55.740;37.402;2022-12-20T08:51:18;100006.94;;;-6.10;85.27
61109;BME280;46995;55.740;37.402;2022-12-20T08:53:43;99997.50;;;-6.08;85.77
61109;BME280;46995;55.740;37.402;2022-12-20T08:56:14;100010.34;;;-6.08;85.14
61109;BME280;46995;55.740;37.402;2022-12-20T08:58:40;100000.03;;;-6.06;84.87
61109;BME280;46995;55.740;37.402;2022-12-20T09:01:08;99975.16;;;-6.03;85.02
61109;BME280;46995;55.740;37.402;2022-12-20T09:03:35;99974.25;;;-6.02;85.13
61109;BME280;46995;55.740;37.402;2022-12-20T09:06:04;99958.94;;;-6.11;86.01
61109;BME280;46995;55.740;37.402;2022-12-20T09:08:32;99942.81;;;-6.22;85.34
61109;BME280;46995;55.740;37.402;2022-12-20T09:11:07;99959.78;;;-6.09;84.87
61109;BME280;46995;55.740;37.402;2022-12-20T09:13:33;99973.38;;;-6.01;85.65
61109;BME280;46995;55.740;37.402;2022-12-20T09:16:00;99955.44;;;-6.04;84.87
61109;BME280;46995;55.740;37.402;2022-12-20T09:18:26;99948.59;;;-6.06;85.41
61109;BME280;46995;55.740;37.402;2022-12-20T09:20:52;99956.25;;;-6.00;85.08
61109;BME280;46995;55.740;37.402;2022-12-20T09:23:17;99941.69;;;-6.01;85.45
61109;BME280;46995;55.740;37.402;2022-12-20T09:25:43;99935.66;;;-5.97;85.29
61109;BME280;46995;55.740;37.402;2022-12-20T09:28:10;99933.91;;;-5.93;85.30
61109;BME280;46995;55.740;37.402;2022-12-20T09:30:38;99925.34;;;-5.95;84.85
61109;BME280;46995;55.740;37.402;2022-12-20T09:33:04;99927.81;;;-5.88;85.10
61109;BME280;46995;55.740;37.402;2022-12-20T09:35:30;99929.44;;;-5.84;85.03
61109;BME280;46995;55.740;37.402;2022-12-20T09:38:02;99892.00;;;-6.02;84.99
61109;BME280;46995;55.740;37.402;2022-12-20T09:40:30;99906.31;;;-5.85;84.84
61109;BME280;46995;55.740;37.402;2022-12-20T09:42:58;99874.78;;;-5.96;85.03
61109;BME280;46995;55.740;37.402;2022-12-20T09:45:28;99905.31;;;-5.75;85.27
61109;BME280;46995;55.740;37.402;2022-12-20T09:47:56;99890.81;;;-5.79;84.34
61109;BME280;46995;55.740;37.402;2022-12-20T09:50:46;99866.97;;;-5.87;85.00
61109;BME280;46995;55.740;37.402;2022-12-20T09:59:24;99870.97;;;-5.71;84.91
61109;BME280;46995;55.740;37.402;2022-12-20T10:01:51;99864.91;;;-5.67;84.67
61109;BME280;46995;55.740;37.402;2022-12-20T10:04:25;99857.06;;;-5.60;85.07
61109;BME280;46995;55.740;37.402;2022-12-20T10:07:16;99862.19;;;-5.58;84.95
61109;BME280;46995;55.740;37.402;2022-12-20T10:12:44;99832.16;;;-5.56;85.12
61109;BME280;46995;55.740;37.402;2022-12-20T10:15:24;99850.00;;;-5.45;84.55
61109;BME280;46995;55.740;37.402;2022-12-20T10:20:48;99834.38;;;-5.36;85.05
61109;BME280;46995;55.740;37.402;2022-12-20T10:25:57;99816.28;;;-5.32;84.92
61109;BME280;46995;55.740;37.402;2022-12-20T10:28:34;99831.53;;;-5.20;84.88
61109;BME280;46995;55.740;37.402;2022-12-20T10:31:06;99835.66;;;-5.11;84.59
61109;BME280;46995;55.740;37.402;2022-12-20T10:33:33;99822.88;;;-5.16;85.66
61109;BME280;46995;55.740;37.402;2022-12-20T10:38:50;99799.91;;;-5.26;85.22
61109;BME280;46995;55.740;37.402;2022-12-20T10:41:22;99804.09;;;-5.21;84.75
61109;BME280;46995;55.740;37.402;2022-12-20T10:43:53;99788.72;;;-5.24;84.92
61109;BME280;46995;55.740;37.402;2022-12-20T10:46:21;99789.41;;;-5.16;85.67
61109;BME280;46995;55.740;37.402;2022-12-20T10:48:48;99803.59;;;-4.95;84.89
61109;BME280;46995;55.740;37.402;2022-12-20T10:51:18;99771.03;;;-4.97;84.98
61109;BME280;46995;55.740;37.402;2022-12-20T10:56:20;99769.50;;;-4.64;85.40
61109;BME280;46995;55.740;37.402;2022-12-20T10:59:00;99790.63;;;-4.49;85.64
61109;BME280;46995;55.740;37.402;2022-12-20T11:01:36;99783.84;;;-4.53;84.39
61109;BME280;46995;55.740;37.402;2022-12-20T11:06:52;99763.88;;;-4.43;85.12
61109;BME280;46995;55.740;37.402;2022-12-20T11:09:28;99791.00;;;-4.25;84.73
61109;BME280;46995;55.740;37.402;2022-12-20T11:12:08;99790.13;;;-4.26;84.35
61109;BME280;46995;55.740;37.402;2022-12-20T11:14:37;99778.16;;;-4.29;84.38
61109;BME280;46995;55.740;37.402;2022-12-20T11:20:10;99771.25;;;-4.27;83.78
61109;BME280;46995;55.740;37.402;2022-12-20T11:28:35;99777.91;;;-4.56;83.63
61109;BME280;46995;55.740;37.402;2022-12-20T11:31:21;99773.94;;;-4.71;83.61
61109;BME280;46995;55.740;37.402;2022-12-20T11:37:26;99760.78;;;-5.00;83.38
61109;BME280;46995;55.740;37.402;2022-12-20T11:52:40;99741.25;;;-5.57;83.11
61109;BME280;46995;55.740;37.402;2022-12-20T11:55:21;99758.34;;;-5.54;83.43
61109;BME280;46995;55.740;37.402;2022-12-20T11:57:58;99742.31;;;-5.68;84.07
61109;BME280;46995;55.740;37.402;2022-12-20T12:00:27;99758.63;;;-5.69;83.94
61109;BME280;46995;55.740;37.402;2022-12-20T12:02:58;99751.06;;;-5.78;83.47
61109;BME280;46995;55.740;37.402;2022-12-20T12:08:08;99733.47;;;-6.00;83.95
61109;BME280;46995;55.740;37.402;2022-12-20T12:10:40;99747.16;;;-5.97;83.79
61109;BME280;46995;55.740;37.402;2022-12-20T12:13:20;99745.53;;;-6.05;83.66
61109;BME280;46995;55.740;37.402;2022-12-20T12:18:38;99747.41;;;-6.13;83.70
61109;BME280;46995;55.740;37.402;2022-12-20T12:21:39;99759.41;;;-6.15;83.64
61109;BME280;46995;55.740;37.402;2022-12-20T12:24:25;99750.06;;;-6.19;83.53
61109;BME280;46995;55.740;37.402;2022-12-20T12:26:57;99724.59;;;-6.35;83.58
61109;BME280;46995;55.740;37.402;2022-12-20T12:29:23;99740.00;;;-6.34;84.24
61109;BME280;46995;55.740;37.402;2022-12-20T12:32:12;99746.78;;;-6.28;83.77
61109;BME280;46995;55.740;37.402;2022-12-20T12:35:09;99751.03;;;-6.27;84.23
61109;BME280;46995;55.740;37.402;2022-12-20T12:38:03;99754.44;;;-6.27;84.26
61109;BME280;46995;55.740;37.402;2022-12-20T12:43:27;99752.78;;;-6.29;83.99
61109;BME280;46995;55.740;37.402;2022-12-20T12:46:14;99753.63;;;-6.29;84.12
61109;BME280;46995;55.740;37.402;2022-12-20T12:48:48;99711.97;;;-6.49;84.35
61109;BME280;46995;55.740;37.402;2022-12-20T12:51:25;99742.47;;;-6.28;84.25
61109;BME280;46995;55.740;37.402;2022-12-20T12:54:00;99735.66;;;-6.29;84.68
61109;BME280;46995;55.740;37.402;2022-12-20T12:59:51;99733.09;;;-6.30;84.39
61109;BME280;46995;55.740;37.402;2022-12-20T13:05:28;99721.09;;;-6.28;84.01
61109;BME280;46995;55.740;37.402;2022-12-20T13:07:43;99731.22;;;-6.19;84.42
61109;BME280;46995;55.740;37.402;2022-12-20T13:20:30;99724.13;;;-6.05;84.30
61109;BME280;46995;55.740;37.402;2022-12-20T13:25:38;99732.66;;;-6.03;84.58
61109;BME280;46995;55.740;37.402;2022-12-20T13:33:43;99719.03;;;-6.08;83.93
61109;BME280;46995;55.740;37.402;2022-12-20T13:43:50;99717.34;;;-6.11;84.49
61109;BME280;46995;55.740;37.402;2022-12-20T13:46:29;99700.47;;;-6.25;84.32
61109;BME280;46995;55.740;37.402;2022-12-20T13:49:04;99704.66;;;-6.20;84.17
61109;BME280;46995;55.740;37.402;2022-12-20T13:51:35;99718.19;;;-6.09;84.17
61109;BME280;46995;55.740;37.402;2022-12-20T13:54:23;99682.50;;;-6.27;84.80
61109;BME280;46995;55.740;37.402;2022-12-20T13:56:48;99732.50;;;-5.92;84.65
61109;BME280;46995;55.740;37.402;2022-12-20T13:59:30;99735.00;;;-5.89;84.40
61109;BME280;46995;55.740;37.402;2022-12-20T14:01:58;99709.47;;;-5.98;84.69
61109;BME280;46995;55.740;37.402;2022-12-20T14:04:27;99721.38;;;-5.94;84.74
61109;BME280;46995;55.740;37.402;2022-12-20T14:07:03;99651.00;;;-6.38;83.94
61109;BME280;46995;55.740;37.402;2022-12-20T14:09:32;99716.34;;;-6.01;83.94
61109;BME280;46995;55.740;37.402;2022-12-20T14:12:03;99718.09;;;-6.03;84.33
61109;BME280;46995;55.740;37.402;2022-12-20T14:14:30;99697.88;;;-6.24;84.35
61109;BME280;46995;55.740;37.402;2022-12-20T14:17:14;99720.00;;;-6.14;83.53
61109;BME280;46995;55.740;37.402;2022-12-20T14:19:40;99701.34;;;-6.28;83.98
61109;BME280;46995;55.740;37.402;2022-12-20T14:22:08;99711.69;;;-6.31;83.70
61109;BME280;46995;55.740;37.402;2022-12-20T14:24:35;99689.72;;;-6.50;84.31
61109;BME280;46995;55.740;37.402;2022-12-20T14:27:03;99684.63;;;-6.53;83.99
61109;BME280;46995;55.740;37.402;2022-12-20T14:29:29;99688.88;;;-6.52;84.36
61109;BME280;46995;55.740;37.402;2022-12-20T14:31:56;99674.56;;;-6.65;84.00
61109;BME280;46995;55.740;37.402;2022-12-20T14:34:28;99697.44;;;-6.52;84.17
61109;BME280;46995;55.740;37.402;2022-12-20T14:40:17;99698.44;;;-6.60;84.29
61109;BME280;46995;55.740;37.402;2022-12-20T14:42:44;99703.59;;;-6.63;84.17